Wetterdaten: Woche 09.09.13 - 15.09.13 (KW37)
Datum Zeit Temperatur Luftfeuchte Luftdruck Niederschlag Windrichtung Sonnenschein Solar Wind
09.09.2013 00:00 14,5 C 96 % 1015,4 hPa 10,4 l/m SW 0,00 h 0 W/m 12,5 km/h (3 Bft)
09.09.2013 01:00 13,5 C 96 % 1016,1 hPa 3,4 l/m NW 0,00 h 0 W/m 13,5 km/h (3 Bft)
09.09.2013 02:00 12,6 C 97 % 1016,9 hPa 0,6 l/m W 0,00 h 0 W/m 8,4 km/h (2 Bft)
09.09.2013 03:00 12,3 C 97 % 1017,4 hPa 0,0 l/m W 0,00 h 0 W/m 10,2 km/h (2 Bft)
09.09.2013 04:00 12,0 C 97 % 1017,5 hPa 0,0 l/m W 0,00 h 0 W/m 11,6 km/h (2 Bft)
09.09.2013 05:00 11,8 C 97 % 1017,9 hPa 0,0 l/m W-SW 0,00 h 0 W/m 10,9 km/h (2 Bft)
09.09.2013 06:00 11,8 C 97 % 1017,8 hPa 0,0 l/m W-SW 0,00 h 0 W/m 8,0 km/h (2 Bft)
09.09.2013 07:00 11,6 C 97 % 1018,3 hPa 0,0 l/m SW 0,00 h 18 W/m 9,3 km/h (2 Bft)
09.09.2013 08:00 11,6 C 97 % 1018,9 hPa 0,0 l/m W-SW 0,25 h 117 W/m 9,1 km/h (2 Bft)
09.09.2013 09:00 12,4 C 92 % 1019,5 hPa 0,0 l/m W-SW 0,75 h 328 W/m 14,9 km/h (3 Bft)
09.09.2013 10:00 13,7 C 80 % 1019,9 hPa 0,0 l/m W 0,83 h 486 W/m 19,8 km/h (4 Bft)
09.09.2013 11:00 14,2 C 74 % 1019,8 hPa 0,0 l/m W-SW 0,67 h 533 W/m 21,4 km/h (4 Bft)
09.09.2013 12:00 15,2 C 70 % 1019,5 hPa 0,0 l/m W-SW 0,50 h 523 W/m 21,4 km/h (4 Bft)
09.09.2013 13:00 15,3 C 66 % 1019,3 hPa 0,0 l/m W-SW 0,17 h 313 W/m 17,3 km/h (3 Bft)
09.09.2013 14:00 15,2 C 66 % 1019,0 hPa 0,0 l/m W-SW 0,08 h 194 W/m 10,8 km/h (2 Bft)
09.09.2013 15:00 16,6 C 63 % 1018,1 hPa 0,0 l/m W-SW 0,08 h 204 W/m 9,5 km/h (2 Bft)
09.09.2013 16:00 17,3 C 57 % 1017,6 hPa 0,0 l/m W-SW 0,67 h 452 W/m 9,5 km/h (2 Bft)
09.09.2013 17:00 18,3 C 53 % 1017,3 hPa 0,0 l/m SW 0,83 h 343 W/m 16,6 km/h (3 Bft)
09.09.2013 18:00 17,2 C 56 % 1017,0 hPa 0,0 l/m SW 0,83 h 176 W/m 13,6 km/h (3 Bft)
09.09.2013 19:00 15,3 C 66 % 1016,8 hPa 0,0 l/m SW 0,00 h 13 W/m 2,8 km/h (1 Bft)
09.09.2013 20:00 13,3 C 74 % 1016,6 hPa 0,0 l/m N 0,00 h 0 W/m 0,0 km/h (0 Bft)
09.09.2013 21:00 11,7 C 82 % 1016,6 hPa 0,0 l/m N 0,00 h 0 W/m 0,0 km/h (0 Bft)
09.09.2013 22:00 11,0 C 86 % 1016,3 hPa 0,0 l/m N 0,00 h 0 W/m 0,0 km/h (0 Bft)
09.09.2013 23:00 10,8 C 88 % 1015,7 hPa 0,0 l/m N 0,00 h 0 W/m 0,1 km/h (0 Bft)
10.09.2013 00:00 10,5 C 89 % 1015,5 hPa 0,0 l/m N 0,00 h 0 W/m 0,8 km/h (0 Bft)
10.09.2013 01:00 10,1 C 91 % 1015,1 hPa 0,0 l/m N 0,00 h 0 W/m 3,9 km/h (1 Bft)
10.09.2013 02:00 10,6 C 92 % 1014,7 hPa 0,0 l/m SW 0,00 h 0 W/m 9,3 km/h (2 Bft)
10.09.2013 03:00 11,7 C 90 % 1014,4 hPa 0,0 l/m SW 0,00 h 0 W/m 11,4 km/h (2 Bft)
10.09.2013 04:00 12,0 C 88 % 1014,1 hPa 0,0 l/m SW 0,00 h 0 W/m 9,5 km/h (2 Bft)
10.09.2013 05:00 12,4 C 87 % 1013,6 hPa 0,0 l/m SW 0,00 h 0 W/m 10,9 km/h (2 Bft)
10.09.2013 06:00 12,2 C 89 % 1013,3 hPa 0,0 l/m SW 0,00 h 5 W/m 12,6 km/h (3 Bft)
10.09.2013 07:00 12,6 C 89 % 1013,4 hPa 0,0 l/m SW 0,00 h 15 W/m 15,8 km/h (3 Bft)
10.09.2013 08:00 12,8 C 91 % 1013,4 hPa 0,0 l/m SW 0,00 h 31 W/m 14,8 km/h (3 Bft)
10.09.2013 09:00 13,0 C 93 % 1013,2 hPa 0,0 l/m SW 0,00 h 35 W/m 11,0 km/h (2 Bft)
10.09.2013 10:00 13,2 C 94 % 1013,1 hPa 0,6 l/m W-SW 0,00 h 52 W/m 11,4 km/h (2 Bft)
10.09.2013 11:00 13,1 C 94 % 1013,3 hPa 0,0 l/m W 0,00 h 56 W/m 12,6 km/h (3 Bft)
10.09.2013 12:00 11,9 C 92 % 1013,4 hPa 0,6 l/m NW 0,00 h 59 W/m 9,9 km/h (2 Bft)
10.09.2013 13:00 12,0 C 94 % 1013,8 hPa 0,0 l/m W-NW 0,00 h 92 W/m 8,7 km/h (2 Bft)
10.09.2013 14:00 11,8 C 89 % 1014,6 hPa 0,2 l/m N-NW 0,00 h 86 W/m 18,2 km/h (3 Bft)
10.09.2013 15:00 11,5 C 85 % 1015,3 hPa 0,0 l/m NW 0,00 h 124 W/m 16,6 km/h (3 Bft)
10.09.2013 16:00 11,6 C 81 % 1015,5 hPa 0,0 l/m W-NW 0,08 h 156 W/m 12,1 km/h (2 Bft)
10.09.2013 17:00 11,9 C 79 % 1015,6 hPa 0,0 l/m W-NW 0,00 h 118 W/m 8,8 km/h (2 Bft)
10.09.2013 18:00 12,1 C 80 % 1015,7 hPa 0,0 l/m SW 0,25 h 101 W/m 9,7 km/h (2 Bft)
10.09.2013 19:00 11,5 C 84 % 1016,2 hPa 0,0 l/m SW 0,08 h 18 W/m 7,9 km/h (2 Bft)
10.09.2013 20:00 10,6 C 87 % 1016,8 hPa 0,0 l/m W-SW 0,00 h 0 W/m 10,1 km/h (2 Bft)
10.09.2013 21:00 10,1 C 91 % 1016,9 hPa 0,0 l/m SW 0,00 h 0 W/m 9,1 km/h (2 Bft)
10.09.2013 22:00 9,4 C 93 % 1016,8 hPa 0,0 l/m SW 0,00 h 0 W/m 5,7 km/h (1 Bft)
10.09.2013 23:00 9,2 C 95 % 1016,8 hPa 0,0 l/m SW 0,00 h 0 W/m 7,9 km/h (2 Bft)
11.09.2013 00:00 9,0 C 95 % 1016,7 hPa 0,0 l/m SW 0,00 h 0 W/m 2,9 km/h (1 Bft)
11.09.2013 01:00 8,9 C 95 % 1016,7 hPa 0,0 l/m N 0,00 h 0 W/m 1,7 km/h (1 Bft)
11.09.2013 02:00 8,5 C 96 % 1016,5 hPa 0,0 l/m SW 0,00 h 0 W/m 1,7 km/h (1 Bft)
11.09.2013 03:00 8,6 C 96 % 1016,2 hPa 0,0 l/m SW 0,00 h 0 W/m 5,5 km/h (1 Bft)
11.09.2013 04:00 8,2 C 96 % 1015,8 hPa 0,0 l/m SW 0,00 h 0 W/m 9,5 km/h (2 Bft)
11.09.2013 05:00 7,9 C 96 % 1015,7 hPa 0,0 l/m SW 0,00 h 0 W/m 7,6 km/h (2 Bft)
11.09.2013 06:00 7,3 C 96 % 1015,4 hPa 0,0 l/m SW 0,00 h 5 W/m 11,2 km/h (2 Bft)
11.09.2013 07:00 7,3 C 96 % 1015,5 hPa 0,2 l/m SW 0,00 h 30 W/m 13,4 km/h (3 Bft)
11.09.2013 08:00 8,8 C 96 % 1015,6 hPa 0,0 l/m W-SW 0,25 h 94 W/m 19,6 km/h (3 Bft)
11.09.2013 09:00 10,1 C 88 % 1015,5 hPa 0,0 l/m W 0,00 h 137 W/m 26,1 km/h (4 Bft)
11.09.2013 10:00 11,1 C 81 % 1015,4 hPa 0,0 l/m W 0,00 h 196 W/m 26,8 km/h (4 Bft)
11.09.2013 11:00 12,2 C 75 % 1015,4 hPa 0,0 l/m W-SW 0,58 h 404 W/m 28,4 km/h (4 Bft)
11.09.2013 12:00 12,5 C 71 % 1015,3 hPa 0,0 l/m W 0,00 h 210 W/m 29,4 km/h (5 Bft)
11.09.2013 13:00 13,0 C 69 % 1015,2 hPa 0,0 l/m W 0,08 h 279 W/m 28,0 km/h (4 Bft)
11.09.2013 14:00 12,9 C 68 % 1015,0 hPa 0,0 l/m W-SW 0,00 h 150 W/m 28,1 km/h (4 Bft)
11.09.2013 15:00 12,1 C 74 % 1015,1 hPa 0,0 l/m W 0,00 h 112 W/m 27,8 km/h (4 Bft)
11.09.2013 16:00 10,9 C 86 % 1015,1 hPa 0,2 l/m W-SW 0,00 h 57 W/m 21,7 km/h (4 Bft)
11.09.2013 17:00 10,8 C 86 % 1015,2 hPa 0,0 l/m W-SW 0,00 h 92 W/m 21,7 km/h (4 Bft)
11.09.2013 18:00 11,5 C 83 % 1015,2 hPa 0,0 l/m W-SW 0,25 h 100 W/m 18,2 km/h (3 Bft)
11.09.2013 19:00 10,9 C 85 % 1015,4 hPa 0,0 l/m W-SW 0,00 h 12 W/m 16,8 km/h (3 Bft)
11.09.2013 20:00 10,6 C 87 % 1015,4 hPa 0,0 l/m W-SW 0,00 h 0 W/m 19,3 km/h (3 Bft)
11.09.2013 21:00 10,2 C 90 % 1015,3 hPa 0,2 l/m W-SW 0,00 h 0 W/m 20,2 km/h (4 Bft)
11.09.2013 22:00 10,0 C 91 % 1014,9 hPa 0,0 l/m W-SW 0,00 h 0 W/m 20,2 km/h (4 Bft)
11.09.2013 23:00 10,1 C 91 % 1014,8 hPa 0,0 l/m W-SW 0,00 h 0 W/m 23,2 km/h (4 Bft)
12.09.2013 00:00 10,2 C 92 % 1014,7 hPa 1,8 l/m W-SW 0,00 h 0 W/m 15,0 km/h (3 Bft)
12.09.2013 01:00 9,9 C 94 % 1014,5 hPa 5,0 l/m W-SW 0,00 h 0 W/m 13,4 km/h (3 Bft)
12.09.2013 02:00 9,8 C 96 % 1013,8 hPa 1,2 l/m SW 0,00 h 0 W/m 16,8 km/h (3 Bft)
12.09.2013 03:00 9,7 C 96 % 1013,8 hPa 0,4 l/m W 0,00 h 0 W/m 19,2 km/h (3 Bft)
12.09.2013 04:00 9,6 C 96 % 1013,6 hPa 0,0 l/m W 0,00 h 0 W/m 15,0 km/h (3 Bft)
12.09.2013 05:00 9,4 C 97 % 1013,5 hPa 0,0 l/m W-SW 0,00 h 0 W/m 15,7 km/h (3 Bft)
12.09.2013 06:00 9,4 C 97 % 1013,7 hPa 0,2 l/m W-SW 0,00 h 0 W/m 13,4 km/h (3 Bft)
12.09.2013 07:00 9,7 C 97 % 1014,0 hPa 0,0 l/m W-SW 0,00 h 11 W/m 11,3 km/h (2 Bft)
12.09.2013 08:00 9,9 C 97 % 1014,3 hPa 0,2 l/m W 0,00 h 36 W/m 12,9 km/h (3 Bft)
12.09.2013 09:00 10,3 C 97 % 1014,6 hPa 0,2 l/m W 0,00 h 67 W/m 14,2 km/h (3 Bft)
12.09.2013 10:00 11,0 C 97 % 1015,0 hPa 0,0 l/m W-SW 0,00 h 167 W/m 15,7 km/h (3 Bft)
12.09.2013 11:00 11,6 C 93 % 1015,3 hPa 0,0 l/m W 0,00 h 84 W/m 14,9 km/h (3 Bft)
12.09.2013 12:00 11,4 C 94 % 1015,3 hPa 1,6 l/m W-SW 0,00 h 172 W/m 18,6 km/h (3 Bft)
12.09.2013 13:00 12,0 C 93 % 1015,3 hPa 0,2 l/m W 0,08 h 246 W/m 20,2 km/h (4 Bft)
12.09.2013 14:00 11,6 C 93 % 1015,4 hPa 3,2 l/m W 0,00 h 63 W/m 18,0 km/h (3 Bft)
12.09.2013 15:00 11,4 C 95 % 1015,7 hPa 3,6 l/m W-NW 0,00 h 86 W/m 11,3 km/h (2 Bft)
12.09.2013 16:00 11,4 C 95 % 1016,1 hPa 2,4 l/m W-NW 0,00 h 84 W/m 13,0 km/h (3 Bft)
12.09.2013 17:00 11,2 C 95 % 1016,5 hPa 0,8 l/m N-NW 0,00 h 32 W/m 10,2 km/h (2 Bft)
12.09.2013 18:00 10,5 C 95 % 1017,0 hPa 0,4 l/m W-NW 0,00 h 25 W/m 8,2 km/h (2 Bft)
12.09.2013 19:00 10,3 C 96 % 1017,3 hPa 0,0 l/m W-NW 0,00 h 10 W/m 6,3 km/h (2 Bft)
12.09.2013 20:00 10,1 C 96 % 1017,9 hPa 0,2 l/m W 0,00 h 0 W/m 9,5 km/h (2 Bft)
12.09.2013 21:00 10,0 C 96 % 1018,5 hPa 0,4 l/m W 0,00 h 0 W/m 12,4 km/h (3 Bft)
12.09.2013 22:00 9,8 C 96 % 1018,8 hPa 0,0 l/m W 0,00 h 0 W/m 8,9 km/h (2 Bft)
12.09.2013 23:00 9,8 C 97 % 1019,1 hPa 0,0 l/m W 0,00 h 0 W/m 8,3 km/h (2 Bft)
13.09.2013 00:00 9,8 C 97 % 1019,2 hPa 0,4 l/m W 0,00 h 0 W/m 10,8 km/h (2 Bft)
13.09.2013 01:00 9,8 C 97 % 1019,1 hPa 0,0 l/m W 0,00 h 0 W/m 11,4 km/h (2 Bft)
13.09.2013 02:00 9,6 C 97 % 1019,2 hPa 0,8 l/m W 0,00 h 0 W/m 11,2 km/h (2 Bft)
13.09.2013 03:00 9,5 C 97 % 1019,2 hPa 0,4 l/m W 0,00 h 0 W/m 8,0 km/h (2 Bft)
13.09.2013 04:00 9,5 C 97 % 1019,2 hPa 0,0 l/m W 0,00 h 0 W/m 8,9 km/h (2 Bft)
13.09.2013 05:00 9,5 C 97 % 1019,5 hPa 0,2 l/m W 0,00 h 0 W/m 7,1 km/h (2 Bft)
13.09.2013 06:00 9,4 C 97 % 1019,7 hPa 0,2 l/m W 0,00 h 0 W/m 8,8 km/h (2 Bft)
13.09.2013 07:00 9,4 C 97 % 1020,2 hPa 0,0 l/m W 0,00 h 7 W/m 5,3 km/h (1 Bft)
13.09.2013 08:00 9,6 C 97 % 1020,6 hPa 0,0 l/m W 0,00 h 19 W/m 4,1 km/h (1 Bft)
13.09.2013 09:00 10,0 C 97 % 1020,8 hPa 0,0 l/m W 0,00 h 64 W/m 5,3 km/h (1 Bft)
13.09.2013 10:00 10,8 C 97 % 1021,3 hPa 0,0 l/m W 0,00 h 86 W/m 5,1 km/h (1 Bft)
13.09.2013 11:00 11,8 C 94 % 1021,6 hPa 0,0 l/m W 0,00 h 201 W/m 6,8 km/h (2 Bft)
13.09.2013 12:00 13,5 C 86 % 1021,4 hPa 0,0 l/m W-SW 0,42 h 397 W/m 9,9 km/h (2 Bft)
13.09.2013 13:00 14,4 C 82 % 1021,1 hPa 0,0 l/m S-SW 0,25 h 225 W/m 10,1 km/h (2 Bft)
13.09.2013 14:00 13,1 C 88 % 1021,4 hPa 1,6 l/m W-SW 0,00 h 110 W/m 6,7 km/h (2 Bft)
13.09.2013 15:00 12,7 C 93 % 1021,2 hPa 0,0 l/m SW 0,17 h 209 W/m 10,5 km/h (2 Bft)
13.09.2013 16:00 13,8 C 87 % 1020,9 hPa 0,0 l/m W-SW 0,17 h 127 W/m 9,8 km/h (2 Bft)
13.09.2013 17:00 14,0 C 87 % 1020,6 hPa 0,0 l/m W-SW 0,08 h 128 W/m 5,9 km/h (2 Bft)
13.09.2013 18:00 14,2 C 86 % 1020,5 hPa 0,0 l/m W-SW 0,00 h 50 W/m 3,2 km/h (1 Bft)
13.09.2013 19:00 13,5 C 89 % 1020,5 hPa 0,0 l/m N 0,00 h 7 W/m 1,6 km/h (1 Bft)
13.09.2013 20:00 12,4 C 90 % 1020,9 hPa 0,0 l/m N 0,00 h 0 W/m 0,0 km/h (0 Bft)
13.09.2013 21:00 11,6 C 92 % 1021,0 hPa 0,0 l/m N 0,00 h 0 W/m 0,0 km/h (0 Bft)
13.09.2013 22:00 10,7 C 92 % 1020,8 hPa 0,2 l/m N 0,00 h 0 W/m 0,0 km/h (0 Bft)
13.09.2013 23:00 9,9 C 93 % 1020,7 hPa 0,0 l/m N 0,00 h 0 W/m 0,0 km/h (0 Bft)
14.09.2013 00:00 9,4 C 94 % 1020,4 hPa 0,0 l/m N 0,00 h 0 W/m 0,8 km/h (0 Bft)
14.09.2013 01:00 8,8 C 95 % 1020,0 hPa 0,0 l/m N 0,00 h 0 W/m 0,3 km/h (0 Bft)
14.09.2013 02:00 8,5 C 95 % 1019,2 hPa 0,0 l/m W-SW 0,00 h 0 W/m 3,6 km/h (1 Bft)
14.09.2013 03:00 8,8 C 96 % 1018,6 hPa 0,0 l/m W-SW 0,00 h 0 W/m 4,1 km/h (1 Bft)
14.09.2013 04:00 8,7 C 97 % 1018,3 hPa 0,0 l/m N 0,00 h 0 W/m 0,7 km/h (0 Bft)
14.09.2013 05:00 9,0 C 97 % 1017,6 hPa 0,0 l/m W-SW 0,00 h 0 W/m 1,2 km/h (1 Bft)
14.09.2013 06:00 9,5 C 98 % 1017,3 hPa 0,0 l/m N 0,00 h 0 W/m 2,5 km/h (1 Bft)
14.09.2013 07:00 10,1 C 98 % 1017,1 hPa 0,0 l/m SW 0,00 h 13 W/m 9,9 km/h (2 Bft)
14.09.2013 08:00 10,6 C 98 % 1016,9 hPa 0,0 l/m SW 0,00 h 32 W/m 14,4 km/h (3 Bft)
14.09.2013 09:00 11,6 C 97 % 1016,9 hPa 0,0 l/m S-SW 0,00 h 110 W/m 10,3 km/h (2 Bft)
14.09.2013 10:00 12,9 C 95 % 1016,8 hPa 0,2 l/m SW 0,00 h 118 W/m 13,3 km/h (3 Bft)
14.09.2013 11:00 14,0 C 93 % 1016,6 hPa 0,0 l/m SW 0,00 h 176 W/m 14,1 km/h (3 Bft)
14.09.2013 12:00 14,2 C 92 % 1016,1 hPa 0,6 l/m SW 0,00 h 134 W/m 13,6 km/h (3 Bft)
14.09.2013 13:00 14,4 C 95 % 1015,8 hPa 0,2 l/m SW 0,00 h 200 W/m 13,2 km/h (3 Bft)
14.09.2013 14:00 15,7 C 93 % 1015,3 hPa 0,0 l/m SW 0,00 h 221 W/m 10,2 km/h (2 Bft)
14.09.2013 15:00 17,0 C 89 % 1014,7 hPa 0,0 l/m SW 0,17 h 242 W/m 10,2 km/h (2 Bft)
14.09.2013 16:00 16,9 C 89 % 1014,2 hPa 0,0 l/m S-SO 0,00 h 124 W/m 10,6 km/h (2 Bft)
14.09.2013 17:00 16,6 C 91 % 1013,8 hPa 0,2 l/m SW 0,00 h 63 W/m 7,6 km/h (2 Bft)
14.09.2013 18:00 16,1 C 93 % 1013,5 hPa 0,0 l/m SW 0,00 h 28 W/m 9,4 km/h (2 Bft)
14.09.2013 19:00 15,5 C 93 % 1013,4 hPa 0,0 l/m N 0,00 h 8 W/m 0,8 km/h (0 Bft)
14.09.2013 20:00 15,0 C 94 % 1013,5 hPa 0,0 l/m N 0,00 h 0 W/m 0,9 km/h (0 Bft)
14.09.2013 21:00 14,6 C 94 % 1013,6 hPa 0,0 l/m N 0,00 h 0 W/m 0,0 km/h (0 Bft)
14.09.2013 22:00 14,3 C 95 % 1013,6 hPa 0,0 l/m N 0,00 h 0 W/m 1,3 km/h (1 Bft)
14.09.2013 23:00 14,0 C 95 % 1013,2 hPa 0,0 l/m SW 0,00 h 0 W/m 1,9 km/h (1 Bft)
15.09.2013 00:00 13,9 C 96 % 1012,8 hPa 0,2 l/m SW 0,00 h 0 W/m 4,4 km/h (1 Bft)
15.09.2013 01:00 13,7 C 97 % 1012,4 hPa 0,0 l/m SW 0,00 h 0 W/m 4,4 km/h (1 Bft)
15.09.2013 02:00 13,5 C 97 % 1012,2 hPa 0,4 l/m N 0,00 h 0 W/m 0,8 km/h (0 Bft)
15.09.2013 03:00 13,3 C 97 % 1012,0 hPa 0,4 l/m SW 0,00 h 0 W/m 2,5 km/h (1 Bft)
15.09.2013 04:00 13,2 C 97 % 1011,7 hPa 0,4 l/m SW 0,00 h 0 W/m 4,5 km/h (1 Bft)
15.09.2013 05:00 13,1 C 98 % 1011,0 hPa 0,2 l/m S-SW 0,00 h 0 W/m 8,4 km/h (2 Bft)
15.09.2013 06:00 12,9 C 98 % 1010,5 hPa 0,4 l/m S-SW 0,00 h 0 W/m 7,1 km/h (2 Bft)
15.09.2013 07:00 12,6 C 98 % 1010,1 hPa 0,2 l/m S-SW 0,00 h 14 W/m 3,9 km/h (1 Bft)
15.09.2013 08:00 12,6 C 98 % 1009,9 hPa 0,2 l/m N 0,00 h 35 W/m 2,0 km/h (1 Bft)
15.09.2013 09:00 13,3 C 99 % 1009,8 hPa 0,0 l/m S-SW 0,00 h 86 W/m 3,1 km/h (1 Bft)
15.09.2013 10:00 14,1 C 99 % 1009,8 hPa 0,2 l/m S-SW 0,00 h 144 W/m 5,1 km/h (1 Bft)
15.09.2013 11:00 15,4 C 96 % 1009,5 hPa 0,0 l/m SW 0,08 h 218 W/m 11,4 km/h (2 Bft)
15.09.2013 12:00 16,4 C 92 % 1009,1 hPa 0,0 l/m S-SW 0,17 h 296 W/m 11,7 km/h (2 Bft)
15.09.2013 13:00 17,4 C 86 % 1008,8 hPa 0,0 l/m SW 0,25 h 226 W/m 16,4 km/h (3 Bft)
15.09.2013 14:00 17,1 C 84 % 1008,4 hPa 0,0 l/m W-SW 0,00 h 221 W/m 15,0 km/h (3 Bft)
15.09.2013 15:00 18,1 C 80 % 1007,6 hPa 0,0 l/m W 0,08 h 293 W/m 19,0 km/h (3 Bft)
15.09.2013 16:00 18,4 C 77 % 1006,9 hPa 0,0 l/m W-SW 0,25 h 280 W/m 18,0 km/h (3 Bft)
15.09.2013 17:00 18,3 C 76 % 1006,7 hPa 0,0 l/m W-SW 0,08 h 98 W/m 15,2 km/h (3 Bft)
15.09.2013 18:00 17,3 C 81 % 1006,9 hPa 0,2 l/m W 0,00 h 23 W/m 9,1 km/h (2 Bft)
15.09.2013 19:00 16,2 C 89 % 1007,1 hPa 0,0 l/m W-SW 0,00 h 6 W/m 6,1 km/h (2 Bft)
15.09.2013 20:00 15,2 C 93 % 1007,5 hPa 3,4 l/m W-SW 0,00 h 0 W/m 14,9 km/h (3 Bft)
15.09.2013 21:00 14,6 C 95 % 1008,1 hPa 0,6 l/m W-SW 0,00 h 0 W/m 16,8 km/h (3 Bft)
15.09.2013 22:00 13,9 C 96 % 1008,4 hPa 0,2 l/m W 0,00 h 0 W/m 11,8 km/h (2 Bft)
15.09.2013 23:00 13,3 C 96 % 1008,7 hPa 0,4 l/m W-SW 0,00 h 0 W/m 12,9 km/h (3 Bft)
Min-Datum _ 11.09.13 09.09.13 15.09.13 - - - - 09.09.13
_ Min-Zeit 07:05 16:45 17:35 - - - - 19:30
Minimum _ 6,9 C 51 % 1006,6 hPa - - - - 0,0 km/h (0 Bft)
Max-Datum _ 15.09.13 15.09.13 13.09.13 09.09.13 - 09.09.13 09.09.13 11.09.13
_ Max-Zeit 17:10 09:00 11:05 00:35 - 08:30 12:40 11:40
Maximum _ 18,9 C 99 % 1021,6 hPa 10,4 l/m - 0,08 h 970 W/m 41,8 km/h
SW (6 Bft)
Durchschnitt _ 12,1 C 90 % 1015,6 hPa #50,6 l/m W-SW #9:30 h 136 W/m 10,6 km/h (2 Bft)